Time,TemperatureF,DewpointF,PressureIn,WindDirection,WindDirectionDegrees,WindSpeedMPH,WindSpeedGustMPH,Humidity,HourlyPrecipIn,Conditions,Clouds,dailyrainin,SolarRadiationWatts/m^2,SoftwareType,DateUTC
2013-05-17 00:09:00,60.0,55.0,29.69,South,171,2.0,10.0,82,0.00,,,0.08,0,weatherlink.com 1.10,2013-05-17 05:09:00,
2013-05-17 00:24:00,59.1,55.0,29.70,SSE,165,0.0,6.0,85,0.00,,,0.08,0,weatherlink.com 1.10,2013-05-17 05:24:00,
2013-05-17 00:39:00,58.5,55.0,29.70,South,177,0.0,6.0,87,0.00,,,0.08,0,weatherlink.com 1.10,2013-05-17 05:39:00,
2013-05-17 00:54:00,57.9,54.0,29.70,SSE,157,0.0,9.0,88,0.00,,,0.08,0,weatherlink.com 1.10,2013-05-17 05:54:00,
2013-05-17 01:09:00,57.6,54.0,29.70,South,173,3.0,8.0,89,0.00,,,0.00,0,weatherlink.com 1.10,2013-05-17 06:09:00,
2013-05-17 01:24:00,57.3,54.0,29.71,SSE,154,2.0,5.0,89,0.00,,,0.00,0,weatherlink.com 1.10,2013-05-17 06:24:00,
2013-05-17 01:39:00,57.0,55.0,29.71,SSW,202,7.0,10.0,91,0.00,,,0.00,0,weatherlink.com 1.10,2013-05-17 06:39:00,
2013-05-17 01:54:00,57.2,54.0,29.73,SW,217,5.0,8.0,90,0.00,,,0.00,0,weatherlink.com 1.10,2013-05-17 06:54:00,
2013-05-17 02:09:00,56.7,54.0,29.75,WNW,291,0.0,0.0,91,0.00,,,0.00,0,weatherlink.com 1.10,2013-05-17 07:09:00,
2013-05-17 02:24:00,56.5,54.0,29.75,WNW,288,0.0,0.0,91,0.00,,,0.00,0,weatherlink.com 1.10,2013-05-17 07:24:00,
2013-05-17 02:40:00,57.4,55.0,29.76,WNW,296,0.0,0.0,91,0.00,,,0.00,0,weatherlink.com 1.10,2013-05-17 07:40:00,
2013-05-17 02:55:00,58.1,56.0,29.77,WNW,288,0.0,0.0,91,0.00,,,0.00,0,weatherlink.com 1.10,2013-05-17 07:55:00,
2013-05-17 03:10:00,58.0,55.0,29.76,WNW,301,0.0,0.0,90,0.00,,,0.00,0,weatherlink.com 1.10,2013-05-17 08:10:00,
2013-05-17 03:25:00,58.5,55.0,29.76,West,275,0.0,0.0,89,0.00,,,0.00,0,weatherlink.com 1.10,2013-05-17 08:25:00,
2013-05-17 03:40:00,59.7,56.0,29.76,SW,232,3.0,10.0,87,0.00,,,0.00,0,weatherlink.com 1.10,2013-05-17 08:40:00,
2013-05-17 03:55:00,61.7,56.0,29.74,South,179,3.0,7.0,82,0.00,,,0.00,0,weatherlink.com 1.10,2013-05-17 08:55:00,
2013-05-17 04:10:00,62.8,56.0,29.71,SSW,202,0.0,12.0,78,0.00,,,0.00,0,weatherlink.com 1.10,2013-05-17 09:10:00,
2013-05-17 04:25:00,66.8,54.0,29.69,South,181,4.0,9.0,63,0.00,,,0.00,0,weatherlink.com 1.10,2013-05-17 09:25:00,
2013-05-17 04:40:00,66.1,54.0,29.71,SW,225,14.0,22.0,65,0.00,,,0.00,0,weatherlink.com 1.10,2013-05-17 09:40:00,
2013-05-17 04:55:00,64.9,57.0,29.70,SW,227,18.0,20.0,75,0.00,,,0.00,0,weatherlink.com 1.10,2013-05-17 09:55:00,
2013-05-17 05:10:00,64.1,58.0,29.70,SW,216,19.0,26.0,80,0.00,,,0.00,0,weatherlink.com 1.10,2013-05-17 10:10:00,
2013-05-17 05:25:00,63.3,58.0,29.71,SSW,211,12.0,19.0,82,0.00,,,0.00,0,weatherlink.com 1.10,2013-05-17 10:25:00,
2013-05-17 05:40:00,62.3,57.0,29.71,SW,214,14.0,16.0,84,0.00,,,0.00,0,weatherlink.com 1.10,2013-05-17 10:40:00,
2013-05-17 05:55:00,61.8,57.0,29.70,SSW,211,11.0,16.0,85,0.00,,,0.00,0,weatherlink.com 1.10,2013-05-17 10:55:00,
2013-05-17 06:10:00,62.1,57.0,29.70,SW,217,11.0,17.0,84,0.00,,,0.00,0,weatherlink.com 1.10,2013-05-17 11:10:00,
2013-05-17 06:25:00,61.5,57.0,29.70,SW,220,18.0,20.0,85,0.00,,,0.00,0,weatherlink.com 1.10,2013-05-17 11:25:00,
2013-05-17 06:40:00,61.4,57.0,29.70,SW,215,16.0,18.0,85,0.00,,,0.00,7,weatherlink.com 1.10,2013-05-17 11:40:00,
2013-05-17 06:55:00,61.7,57.0,29.70,SW,218,15.0,19.0,85,0.00,,,0.00,12,weatherlink.com 1.10,2013-05-17 11:55:00,
2013-05-17 07:10:00,61.8,57.0,29.71,SW,215,14.0,22.0,85,0.00,,,0.00,21,weatherlink.com 1.10,2013-05-17 12:10:00,
2013-05-17 07:25:00,61.7,58.0,29.71,SW,217,14.0,19.0,86,0.00,,,0.00,81,weatherlink.com 1.10,2013-05-17 12:25:00,
2013-05-17 07:40:00,61.6,57.0,29.72,SW,217,15.0,20.0,86,0.00,,,0.00,81,weatherlink.com 1.10,2013-05-17 12:40:00,
2013-05-17 07:55:00,62.6,58.0,29.72,SW,217,14.0,19.0,86,0.00,,,0.00,178,weatherlink.com 1.10,2013-05-17 12:55:00,
2013-05-17 08:10:00,63.8,59.0,29.72,SW,216,18.0,21.0,85,0.00,,,0.00,232,weatherlink.com 1.10,2013-05-17 13:10:00,
2013-05-17 08:25:00,64.5,60.0,29.73,SW,223,15.0,23.0,84,0.00,,,0.00,279,weatherlink.com 1.10,2013-05-17 13:25:00,
2013-05-17 08:40:00,65.4,61.0,29.73,SSW,194,13.0,21.0,84,0.00,,,0.00,323,weatherlink.com 1.10,2013-05-17 13:40:00,
2013-05-17 08:55:00,66.6,61.0,29.73,SSW,202,4.0,16.0,82,0.00,,,0.00,369,weatherlink.com 1.10,2013-05-17 13:55:00,
2013-05-17 09:10:00,67.6,61.0,29.74,SW,216,13.0,14.0,80,0.00,,,0.00,415,weatherlink.com 1.10,2013-05-17 14:10:00,
2013-05-17 09:25:00,69.2,61.0,29.74,South,180,2.0,13.0,76,0.00,,,0.00,459,weatherlink.com 1.10,2013-05-17 14:25:00,
2013-05-17 09:40:00,70.3,62.0,29.75,SSW,210,8.0,15.0,75,0.00,,,0.00,508,weatherlink.com 1.10,2013-05-17 14:40:00,
2013-05-17 09:56:00,70.9,61.0,29.75,South,186,11.0,14.0,72,0.00,,,0.00,554,weatherlink.com 1.10,2013-05-17 14:56:00,
2013-05-17 10:11:00,71.6,61.0,29.74,SW,219,11.0,14.0,69,0.00,,,0.00,594,weatherlink.com 1.10,2013-05-17 15:11:00,
2013-05-17 10:26:00,72.3,61.0,29.74,SSW,201,9.0,15.0,67,0.00,,,0.00,633,weatherlink.com 1.10,2013-05-17 15:26:00,
2013-05-17 10:41:00,73.9,61.0,29.74,South,180,3.0,11.0,64,0.00,,,0.00,671,weatherlink.com 1.10,2013-05-17 15:41:00,
2013-05-17 10:56:00,74.6,60.0,29.73,South,171,2.0,12.0,61,0.00,,,0.00,710,weatherlink.com 1.10,2013-05-17 15:56:00,
2013-05-17 11:11:00,75.4,59.0,29.73,SSE,163,6.0,11.0,58,0.00,,,0.00,745,weatherlink.com 1.10,2013-05-17 16:11:00,
2013-05-17 11:26:00,76.2,58.0,29.73,SW,223,3.0,12.0,54,0.00,,,0.00,773,weatherlink.com 1.10,2013-05-17 16:26:00,
2013-05-17 11:41:00,77.1,60.0,29.73,South,191,0.0,11.0,55,0.00,,,0.00,803,weatherlink.com 1.10,2013-05-17 16:41:00,
2013-05-17 11:56:00,78.0,59.0,29.73,SSW,196,6.0,14.0,53,0.00,,,0.00,828,weatherlink.com 1.10,2013-05-17 16:56:00,
2013-05-17 12:11:00,78.3,58.0,29.73,SSW,193,1.0,13.0,49,0.00,,,0.00,854,weatherlink.com 1.10,2013-05-17 17:11:00,
2013-05-17 12:26:00,79.3,60.0,29.72,SSE,163,4.0,12.0,51,0.00,,,0.00,870,weatherlink.com 1.10,2013-05-17 17:26:00,
2013-05-17 12:41:00,79.4,57.0,29.72,SE,143,1.0,12.0,47,0.00,,,0.00,886,weatherlink.com 1.10,2013-05-17 17:41:00,
2013-05-17 12:56:00,80.7,56.0,29.71,South,186,9.0,15.0,43,0.00,,,0.00,904,weatherlink.com 1.10,2013-05-17 17:56:00,
2013-05-17 13:11:00,80.9,59.0,29.71,SE,139,2.0,18.0,47,0.00,,,0.00,914,weatherlink.com 1.10,2013-05-17 18:11:00,
2013-05-17 13:26:00,81.1,57.0,29.70,SSE,161,3.0,21.0,44,0.00,,,0.00,919,weatherlink.com 1.10,2013-05-17 18:26:00,
2013-05-17 13:41:00,81.9,57.0,29.71,South,183,10.0,16.0,43,0.00,,,0.00,918,weatherlink.com 1.10,2013-05-17 18:41:00,
2013-05-17 13:56:00,81.9,57.0,29.70,ESE,111,9.0,18.0,43,0.00,,,0.00,919,weatherlink.com 1.10,2013-05-17 18:56:00,
2013-05-17 14:11:00,82.0,58.0,29.70,South,179,7.0,19.0,44,0.00,,,0.00,904,weatherlink.com 1.10,2013-05-17 19:11:00,
2013-05-17 14:26:00,82.5,56.0,29.70,ESE,121,2.0,18.0,40,0.00,,,0.00,905,weatherlink.com 1.10,2013-05-17 19:26:00,
2013-05-17 14:42:00,83.1,54.0,29.69,SSE,167,7.0,24.0,37,0.00,,,0.00,896,weatherlink.com 1.10,2013-05-17 19:42:00,
2013-05-17 14:57:00,83.5,55.0,29.68,SE,142,5.0,24.0,38,0.00,,,0.00,877,weatherlink.com 1.10,2013-05-17 19:57:00,
2013-05-17 15:12:00,83.5,55.0,29.68,SSE,150,5.0,23.0,38,0.00,,,0.00,863,weatherlink.com 1.10,2013-05-17 20:12:00,
2013-05-17 15:27:00,84.9,55.0,29.68,SE,135,15.0,24.0,36,0.00,,,0.00,837,weatherlink.com 1.10,2013-05-17 20:27:00,
2013-05-17 15:42:00,84.3,56.0,29.68,SSE,150,8.0,27.0,38,0.00,,,0.00,810,weatherlink.com 1.10,2013-05-17 20:42:00,
2013-05-17 15:57:00,83.9,53.0,29.67,SSE,159,12.0,21.0,35,0.00,,,0.00,788,weatherlink.com 1.10,2013-05-17 20:57:00,
2013-05-17 16:12:00,84.0,55.0,29.66,SE,143,13.0,24.0,37,0.00,,,0.00,754,weatherlink.com 1.10,2013-05-17 21:12:00,
2013-05-17 16:27:00,84.6,56.0,29.66,SE,140,10.0,21.0,37,0.00,,,0.00,715,weatherlink.com 1.10,2013-05-17 21:27:00,
2013-05-17 16:42:00,83.9,56.0,29.66,SSE,167,17.0,25.0,39,0.00,,,0.00,680,weatherlink.com 1.10,2013-05-17 21:42:00,
2013-05-17 16:57:00,84.7,53.0,29.66,SE,127,13.0,24.0,34,0.00,,,0.00,645,weatherlink.com 1.10,2013-05-17 21:57:00,
2013-05-17 17:12:00,84.1,55.0,29.65,South,186,9.0,25.0,37,0.00,,,0.00,605,weatherlink.com 1.10,2013-05-17 22:12:00,
2013-05-17 17:27:00,84.4,55.0,29.65,ESE,118,22.0,26.0,36,0.00,,,0.00,564,weatherlink.com 1.10,2013-05-17 22:27:00,
2013-05-17 17:42:00,84.2,55.0,29.64,SE,146,6.0,23.0,37,0.00,,,0.00,517,weatherlink.com 1.10,2013-05-17 22:42:00,
2013-05-17 17:57:00,84.3,55.0,29.64,ESE,119,15.0,22.0,36,0.00,,,0.00,468,weatherlink.com 1.10,2013-05-17 22:57:00,
2013-05-17 18:12:00,84.1,54.0,29.64,ESE,109,10.0,23.0,36,0.00,,,0.00,427,weatherlink.com 1.10,2013-05-17 23:12:00,
2013-05-17 18:27:00,84.1,54.0,29.64,ESE,119,13.0,21.0,35,0.00,,,0.00,378,weatherlink.com 1.10,2013-05-17 23:27:00,
2013-05-17 18:42:00,83.7,55.0,29.63,SSE,161,8.0,24.0,37,0.00,,,0.00,336,weatherlink.com 1.10,2013-05-17 23:42:00,
2013-05-17 19:12:00,82.7,55.0,29.61,SE,140,18.0,28.0,38,0.00,,,0.00,237,weatherlink.com 1.10,2013-05-18 00:12:00,
2013-05-17 19:27:00,82.1,55.0,29.62,SE,140,11.0,25.0,40,0.00,,,0.00,188,weatherlink.com 1.10,2013-05-18 00:27:00,
2013-05-17 19:42:00,81.5,56.0,29.62,South,169,6.0,21.0,41,0.00,,,0.00,132,weatherlink.com 1.10,2013-05-18 00:42:00,
2013-05-17 19:57:00,80.6,57.0,29.61,SE,131,8.0,23.0,45,0.00,,,0.00,86,weatherlink.com 1.10,2013-05-18 00:57:00,
2013-05-17 20:12:00,79.6,58.0,29.61,SE,128,2.0,22.0,47,0.00,,,0.00,37,weatherlink.com 1.10,2013-05-18 01:12:00,
2013-05-17 20:27:00,78.2,57.0,29.61,SE,124,7.0,24.0,49,0.00,,,0.00,12,weatherlink.com 1.10,2013-05-18 01:27:00,
2013-05-17 20:43:00,77.2,58.0,29.61,ESE,119,7.0,25.0,51,0.00,,,0.00,9,weatherlink.com 1.10,2013-05-18 01:43:00,
2013-05-17 20:58:00,76.2,59.0,29.61,SE,140,2.0,23.0,56,0.00,,,0.00,0,weatherlink.com 1.10,2013-05-18 01:58:00,
2013-05-17 21:12:00,75.4,63.0,29.61,East,97,6.0,25.0,65,0.00,,,0.00,0,weatherlink.com 1.10,2013-05-18 02:12:00,
2013-05-17 21:27:00,74.5,63.0,29.62,SE,140,0.0,23.0,68,0.00,,,0.00,0,weatherlink.com 1.10,2013-05-18 02:27:00,
2013-05-17 21:43:00,73.3,64.0,29.63,South,176,3.0,17.0,72,0.00,,,0.00,0,weatherlink.com 1.10,2013-05-18 02:43:00,
2013-05-17 21:58:00,72.2,64.0,29.63,SE,136,10.0,16.0,75,0.00,,,0.00,0,weatherlink.com 1.10,2013-05-18 02:58:00,
2013-05-17 22:13:00,71.4,64.0,29.64,ESE,123,16.0,20.0,77,0.00,,,0.00,0,weatherlink.com 1.10,2013-05-18 03:13:00,
2013-05-17 22:28:00,70.6,63.0,29.64,SSE,163,4.0,17.0,78,0.00,,,0.00,0,weatherlink.com 1.10,2013-05-18 03:28:00,
2013-05-17 22:43:00,69.9,64.0,29.65,South,175,1.0,19.0,80,0.00,,,0.00,0,weatherlink.com 1.10,2013-05-18 03:43:00,
2013-05-17 22:58:00,69.2,64.0,29.65,SE,145,7.0,18.0,82,0.00,,,0.00,0,weatherlink.com 1.10,2013-05-18 03:58:00,
2013-05-17 23:13:00,68.8,64.0,29.66,SE,129,13.0,18.0,83,0.00,,,0.00,0,weatherlink.com 1.10,2013-05-18 04:13:00,
2013-05-17 23:28:00,68.4,64.0,29.65,SSE,147,2.0,15.0,85,0.00,,,0.00,0,weatherlink.com 1.10,2013-05-18 04:28:00,
2013-05-17 23:43:00,68.6,64.0,29.65,South,180,4.0,11.0,85,0.00,,,0.00,0,weatherlink.com 1.10,2013-05-18 04:43:00,
2013-05-17 23:58:00,68.5,64.0,29.65,SSE,150,13.0,14.0,86,0.00,,,0.00,0,weatherlink.com 1.10,2013-05-18 04:58:00,